Terminal Aerodrome Forecast
Issued by NWS

Home | Current Version | Previous Version | Text Only | Print | Product List | Glossary On
Versions: 1 2 3 4 5 6 7 8 9 10 11 12 13 14 15 16 17
000
FTUS42 KKEY 281125
TAFMTH
TAF
KMTH 281125Z 2812/2912 19007KT P6SM SCT017
     FM281800 21007KT P6SM SCT017 SCT080 SCT250
     FM290000 22006KT P6SM SCT017 BKN080 BKN250
     FM290600 23007KT P6SM VCTS SCT017CB BKN080 OVC250=

USA.gov is the U.S. government's official web portal to all federal, state and local government web resources and services.